Gourd, Arkansas
Current Conditions -  °F | °C
As of 4:53 AM on Friday 28 Nov 2014 (Local Time) from KLLQ Reporting Station
Clear Clear  
Wind Chill: 34°   Ceiling: Unl
Heat Index: 34°   Visibility: 10mi
Dew Point: 29°   Wind: 3mph
Humidity: 82%   Direction: 140°SE
Pressure: 30.41"   Gusts: NA
Location:  33.8021°N, 91.3887°W
Report Text: KLLQ 281053Z AUTO 14003KT 10SM CLR 01/M02 A3041 RMK AO2 SLP297 T00111017
Loading
Personal Weather Stations






























Interactive Weather Map New forecast layout! Learn more

10-Day Weather Forecast

Advertisements
Track Severe Weather on mobile